Here is the Quick Look data you requested

The Data originates at the National Weather Service, and is made available here by the UAlbany Department of Atmospheric and Environmental Sciences

Surface Observations

KCVG 210852Z 21007KT 10SM OVC005 18/18 A2976 RMK AO2 SLP070 T01830183 55010=
KCVG 210952Z 21006KT 8SM OVC005 18/18 A2976 RMK AO2 SLP071 T01830183=
KCVG 211052Z 21005KT 9SM OVC006 18/18 A2977 RMK AO2 SLP073 T01830183=
KCVG 211152Z 21007KT 5SM BR OVC004 18/18 A2977 RMK AO2 SLP075 70128 T01830183
 10189 20183 53005=
KCVG 211252Z 20006KT 4SM BR BKN003 OVC004 19/19 A2978 RMK AO2 SLP079 T01890189=
KCVG 211352Z 20005KT 6SM BR BKN004 OVC006 20/19 A2980 RMK AO2 SLP082 T02000189=
KCVG 211452Z 20005KT 8SM BKN010 OVC018 21/19 A2979 RMK AO2 SLP081 T02110194
 50007=
KCVG 211552Z 20009KT 10SM SCT014 BKN021 BKN043 23/20 A2978 RMK AO2 SLP074
 T02330200=
KCVG 211652Z 23009KT 10SM -RA SCT021 BKN026 OVC047 24/19 A2977 RMK AO2
 RAB1558E07B43 SLP071 OCNL BINOVC P0000 T02390194=
KCVG 211719Z 26011KT 1 3/4SM R18C/5000VP6000FT +RA BR SCT021 BKN026 OVC047
 22/20 A2976 RMK AO2 P0002 T02220200=
KCVG 211733Z 25006KT 7SM R18C/5000VP6000FT -RA FEW024 BKN045 OVC055 23/21 A2975
 RMK AO2 P0011 T02280206=
KCVG 211752Z 24010KT 10SM SCT024 BKN032 OVC055 23/20 A2975 RMK AO2 RAE37 SLP066
 OCNL BINOVC P0011 60011 T02330200 10244 20189 56014=
KCVG 211852Z 25008KT 10SM SCT021 BKN050 OVC060 24/21 A2974 RMK AO2 LTG DSNT NE
 RAB27E39 SLP063 P0000 T02390206=
KCVG 211952Z 24008KT 10SM SCT025 BKN036 BKN065 OVC210 25/20 A2973 RMK AO2
 RAB15E24 SLP060 CB DSNT S P0000 T02500200=
KCVG 212005Z 26014G23KT 4SM R18C/4500VP6000FT RA BR FEW012 BKN026 BKN070 OVC130
 22/20 A2975 RMK AO2 RAB02 P0000 T02170200=
KCVG 212008Z 26014G23KT 3SM R18C/4000VP6000FT +RA BR FEW011 SCT025 BKN035
 OVC130 21/20 A2975 RMK AO2 RAB02 P0001 T02060200=
KCVG 212019Z 25011G19KT 2SM R18C/4000V5500FT +RA BR FEW014 FEW025 BKN035 OVC130
 20/19 A2974 RMK AO2 RAB02 P0009 T02000194=
KCVG 212041Z 23007KT 5SM -RA BR FEW042 BKN060 OVC085 21/21 A2974 RMK AO2 RAB02
 P0019 T02110206=
KCVG 212052Z 23006KT 10SM FEW022 SCT045 BKN080 OVC130 21/21 A2974 RMK AO2
 RAB02E50 SLP062 P0019 60019 T02110206 55005=
KCVG 212152Z 26006KT 10SM FEW010 FEW070 BKN130 24/21 A2973 RMK AO2 SLP057
 T02390211=
KCVG 212252Z 24008KT 10SM FEW012 BKN050 OVC085 22/21 A2973 RMK AO2 RAB31E43 CIG
 040 36R SLP058 P0000 T02220206=
KCVG 212352Z VRB03KT 3SM -RA BR FEW021 BKN050 OVC090 21/21 A2973 RMK AO2 RAB34
 SLP060 P0003 60022 T02110211 10256 20200 55002=
KCVG 220052Z 22003KT 10SM FEW012 FEW026 OVC040 21/21 A2973 RMK AO2 RAE24 SLP058
 P0001 T02110211=
KCVG 220122Z 20004KT 8SM -RA SCT015 BKN029 OVC043 21/21 A2973 RMK AO2 RAB22
 P0000 T02110211=
KCVG 220132Z 19004KT 8SM SCT015 BKN038 OVC045 21/21 A2973 RMK AO2 LTG DSNT NE
 RAB22E32 CIG 016 36R P0000 T02110211=
KCVG 220147Z 00000KT 2 1/2SM R18C/5500VP6000FT -RA BR SCT014 BKN025 OVC039
 21/21 A2973 RMK AO2 RAB22E32B44 P0000=
KCVG 220155Z 17003KT 2 1/2SM +RA BR FEW009 BKN017 OVC032 21/21 A2973 RMK AO2
 P0003 T02110211=
KCVG 220152Z 00000KT 2 1/2SM R18C/5500VP6000FT +RA BR SCT014 BKN025 OVC039
 21/21 A2973 RMK AO2 RAB22E32B44 SLP059 P0007 T02110211=
KCVG 220225Z 21003KT 4SM -RA BR FEW008 BKN016 OVC026 21/21 A2973 RMK AO2 P0025
 T02110211=
KCVG 220241Z 00000KT 10SM -RA BKN008 OVC015 21/21 A2973 RMK AO2 P0025 T02110211=
KCVG 220250Z 00000KT 10SM -RA SCT008 BKN014 OVC026 21/21 A2973 RMK AO2 CIG 010
 36R P0025=
KCVG 220252Z VRB03KT 10SM -RA SCT008 BKN013 OVC026 21/21 A2973 RMK AO2 SLP059
 P0025 60033 T02110211 51001=
KCVG 220324Z 21004KT 7SM FEW008 BKN015 OVC028 21/21 A2972 RMK AO2 RAE0254 P0000
 T02110211=
KCVG 220340Z 23004KT 7SM BKN008 BKN016 OVC026 21/21 A2971 RMK AO2 RAE0254 P0000
 T02110211=
KCVG 220348Z 24005KT 8SM FEW005 BKN015 OVC026 21/21 A2971 RMK AO2 RAE0254 P0000=
KCVG 220352Z 24005KT 9SM FEW005 BKN011 OVC027 21/21 A2971 RMK AO2 RAE0254
 SLP051 P0000 T02110211=
KCVG 220422Z 25005KT 10SM FEW009 BKN022 OVC027 21/21 A2970 RMK AO2 RAB06E19 CIG
 016 36R P0000 T02110206=
KCVG 220452Z 25003KT 5SM -RA BR BKN006 BKN012 OVC017 21/21 A2970 RMK AO2
 RAB06E19B33 SLP047 P0000 T02110206 402560183=
KCVG 220536Z 25006KT 4SM RA BR BKN004 OVC011 21/21 A2969 RMK AO2 P0007
 T02110206=
KCVG 220549Z 26005KT 2SM RA BR BKN005 OVC010 21/21 A2968 RMK AO2 TWR VIS 2 1/2
 P0012=
KCVG 220552Z 25007KT 2SM -RA BR BKN005 OVC011 21/21 A2968 RMK AO2 TWR VIS 2 1/2
 SLP042 P0012 60045 T02110206 10217 20211 56016=
KCVG 220623Z 26004KT 3SM BR BKN004 OVC008 21/21 A2967 RMK AO2 RAE22 P0001
 T02060206=
KCVG 220652Z 26004KT 4SM -RA BR BKN004 OVC009 21/21 A2967 RMK AO2 RAE22B35
 SLP036 P0001 T02060206=
KCVG 220710Z 32004KT 1SM R18C/P6000FT -RA BR OVC004 21/21 A2966 RMK AO2 SFC VIS
 2 P0002 T02060206=
KCVG 220752Z 32007KT 8SM BKN004 OVC010 21/21 A2966 RMK AO2 RAE46 SLP033 P0003
 T02110211=
KCVG 220822Z VRB04KT 10SM SCT003 BKN009 OVC013 21/21 A2966 RMK AO2 CIG 004 36R
 T02110206=
KCVG 220850Z 32006KT 1 3/4SM +RA BR BKN006 BKN012 OVC019 21/21 A2966 RMK AO2
 RAB46 P0005=
KCVG 220852Z COR 34006KT 4SM -RA BR BKN007 OVC013 21/21 A2966 RMK AO2 RAB46
 SLP034 P0005 60009 T02110206 56008=
KCVG 220852Z 34006KT 1 3/4SM -RA BR BKN007 OVC013 21/21 A2966 RMK AO2 RAB46
 SLP034 P0005 60009 T02110206 56008=